Time;durP1;ratioP1;P1;durP2;ratioP2;P2;SDS_P1;SDS_P2;PMS_P1;PMS_P2;Temp;Humidity;BMP_temperature;BMP_pressure;BME280_temperature;BME280_humidity;BME280_pressure;Samples;Min_cycle;Max_cycle;Signal;HPM_P1;HPM_P2
2022/10/26 04:02:53;;;;;;;;;;;21.40;99.90;;;;;;5145567;23;19926;-79
2022/10/26 04:05:20;;;;;;;;;;;21.40;99.90;;;;;;4996672;28;19930;-78
2022/10/26 04:07:51;;;;;;;;;;;21.40;99.90;;;;;;4997774;28;19926;-79
2022/10/26 04:10:18;;;;;;;;;;;21.40;99.90;;;;;;4996804;28;19946;-78
2022/10/26 04:12:44;;;;;;;;;;;21.40;99.90;;;;;;4998547;28;19933;-78
2022/10/26 04:15:11;;;;;;;;;;;21.40;99.90;;;;;;4998573;28;19926;-78
2022/10/26 04:17:37;;;;;;;;;;;21.40;99.90;;;;;;4998259;28;19926;-78
2022/10/26 04:20:06;;;;;;;;;;;21.40;99.90;;;;;;4998355;28;19933;-78
2022/10/26 04:22:34;;;;;;;;;;;21.40;99.90;;;;;;5021982;23;19930;-76
2022/10/26 04:25:00;;;;;;;;;;;21.40;99.90;;;;;;4998465;28;19933;-78
2022/10/26 04:27:27;;;;;;;;;;;21.50;99.90;;;;;;4998382;28;19926;-78
2022/10/26 04:29:53;;;;;;;;;;;21.40;99.90;;;;;;4999112;28;19925;-81
2022/10/26 04:32:20;;;;;;;;;;;21.50;99.90;;;;;;5000022;28;19932;-82
2022/10/26 04:34:46;;;;;;;;;;;21.50;99.90;;;;;;4999472;28;19961;-82
2022/10/26 04:37:14;;;;;;;;;;;21.50;99.90;;;;;;4999392;28;19926;-82
2022/10/26 04:39:41;;;;;;;;;;;21.50;99.90;;;;;;4999132;28;20037;-83
2022/10/26 04:42:07;;;;;;;;;;;21.50;99.90;;;;;;4999144;28;19933;-82
2022/10/26 04:44:34;;;;;;;;;;;21.50;99.90;;;;;;4999166;28;19929;-81
2022/10/26 04:47:00;;;;;;;;;;;21.50;99.90;;;;;;4999134;28;19926;-80
2022/10/26 04:49:27;;;;;;;;;;;21.40;99.90;;;;;;4999054;28;19926;-79
2022/10/26 04:51:53;;;;;;;;;;;21.40;99.90;;;;;;4999389;28;19926;-80
2022/10/26 04:54:21;;;;;;;;;;;21.40;99.90;;;;;;5000129;28;19925;-79
2022/10/26 04:56:48;;;;;;;;;;;21.40;99.90;;;;;;4998718;28;19926;-79
2022/10/26 04:59:15;;;;;;;;;;;21.40;99.90;;;;;;4998690;28;19933;-79
2022/10/26 05:01:41;;;;;;;;;;;21.40;99.90;;;;;;4997971;28;19930;-79
2022/10/26 05:04:08;;;;;;;;;;;21.40;99.90;;;;;;4998103;28;19933;-78
2022/10/26 05:06:35;;;;;;;;;;;21.30;99.90;;;;;;4998112;28;19925;-78
2022/10/26 05:09:01;;;;;;;;;;;21.40;99.90;;;;;;4998381;28;19933;-78
2022/10/26 10:00:30;;;;;;;;;;;21.30;99.90;;;;;;5463870;23;20036;-82
2022/10/26 10:02:57;;;;;;;;;;;21.40;99.90;;;;;;5005161;28;19926;-81
2022/10/26 10:05:27;;;;;;;;;;;21.40;99.90;;;;;;5005260;28;20381;-81
2022/10/26 10:08:09;;;;;;;;;;;21.40;99.90;;;;;;5004578;28;20388;-80
2022/10/26 10:10:36;;;;;;;;;;;21.40;99.90;;;;;;5005477;28;19972;-80
2022/10/26 10:13:14;;;;;;;;;;;21.40;99.90;;;;;;5005376;28;19926;-80
2022/10/26 10:15:50;;;;;;;;;;;21.40;99.90;;;;;;5004733;28;19925;-80
2022/10/26 10:18:19;;;;;;;;;;;21.40;99.90;;;;;;5025814;23;19926;-77
2022/10/26 10:20:50;;;;;;;;;;;21.40;99.90;;;;;;4995162;28;20407;-77
2022/10/26 10:23:24;;;;;;;;;;;21.40;99.90;;;;;;4995468;28;19933;-77
2022/10/26 10:25:57;;;;;;;;;;;21.40;99.90;;;;;;4995302;28;19930;-77
2022/10/26 10:28:24;;;;;;;;;;;21.40;99.90;;;;;;4995175;28;19926;-77
2022/10/26 10:30:58;;;;;;;;;;;21.40;99.90;;;;;;4994907;28;20278;-77
2022/10/26 10:33:32;;;;;;;;;;;21.50;99.90;;;;;;4995262;28;19932;-77
2022/10/26 10:35:59;;;;;;;;;;;21.50;99.90;;;;;;4994829;28;19926;-77
2022/10/26 10:38:26;;;;;;;;;;;21.50;99.90;;;;;;4995113;28;19926;-77
2022/10/26 10:40:53;;;;;;;;;;;21.50;99.90;;;;;;4995108;28;19941;-77
2022/10/26 10:43:20;;;;;;;;;;;21.50;99.90;;;;;;4995124;28;19933;-77
2022/10/26 10:45:47;;;;;;;;;;;21.50;99.90;;;;;;4994792;28;19925;-77
2022/10/26 10:48:17;;;;;;;;;;;21.50;99.90;;;;;;4994651;28;20381;-77
2022/10/26 10:50:55;;;;;;;;;;;21.50;99.90;;;;;;4994554;28;19930;-78
2022/10/26 10:53:24;;;;;;;;;;;21.50;99.90;;;;;;4994674;28;19925;-77
2022/10/26 10:56:02;;;;;;;;;;;21.50;99.90;;;;;;4994412;28;19972;-77
2022/10/26 10:58:33;;;;;;;;;;;21.50;99.90;;;;;;4994469;28;19925;-77
2022/10/26 11:00:59;;;;;;;;;;;21.50;99.90;;;;;;4995317;28;19929;-77
2022/10/26 11:03:37;;;;;;;;;;;21.60;99.90;;;;;;4996137;28;19932;-78
2022/10/26 11:06:08;;;;;;;;;;;21.50;99.90;;;;;;4995261;28;19929;-77
2022/10/26 11:08:37;;;;;;;;;;;21.50;99.90;;;;;;4996226;28;19932;-78
2022/10/26 11:11:06;;;;;;;;;;;21.60;99.90;;;;;;4995269;28;19930;-78
2022/10/26 11:13:36;;;;;;;;;;;21.60;99.90;;;;;;4994828;28;19933;-78
2022/10/26 11:16:03;;;;;;;;;;;21.60;99.90;;;;;;4994617;28;19926;-78
2022/10/26 11:18:32;;;;;;;;;;;21.60;99.90;;;;;;4994424;28;19932;-78
2022/10/26 11:21:02;;;;;;;;;;;21.60;99.90;;;;;;4996081;28;19933;-78
2022/10/26 11:23:32;;;;;;;;;;;21.70;99.90;;;;;;4998782;28;19929;-78
2022/10/26 11:26:00;;;;;;;;;;;21.70;99.90;;;;;;4998809;28;19977;-78
2022/10/26 11:28:31;;;;;;;;;;;21.70;99.90;;;;;;4998570;28;19929;-78
2022/10/26 11:31:02;;;;;;;;;;;21.70;99.90;;;;;;4998719;28;19925;-78
2022/10/26 11:33:32;;;;;;;;;;;21.70;99.90;;;;;;4998688;28;19948;-78
2022/10/26 11:36:01;;;;;;;;;;;21.70;99.90;;;;;;4998713;28;19926;-78
2022/10/26 11:38:33;;;;;;;;;;;21.70;99.90;;;;;;4997862;28;20389;-76
2022/10/26 11:41:01;;;;;;;;;;;21.70;99.90;;;;;;4998482;28;19926;-76
2022/10/26 11:43:30;;;;;;;;;;;21.70;99.90;;;;;;4997914;28;19933;-77
2022/10/26 11:46:01;;;;;;;;;;;21.70;99.90;;;;;;4998018;28;19926;-77
2022/10/26 11:48:31;;;;;;;;;;;21.70;99.90;;;;;;4998205;28;19926;-77
2022/10/26 11:50:58;;;;;;;;;;;21.70;99.90;;;;;;4998225;28;19926;-77
2022/10/26 11:53:26;;;;;;;;;;;21.70;99.90;;;;;;4998130;28;19996;-77
2022/10/26 11:55:54;;;;;;;;;;;21.70;99.90;;;;;;4998178;28;19933;-77
2022/10/26 11:58:23;;;;;;;;;;;21.70;99.90;;;;;;4998833;28;19934;-78
2022/10/26 12:00:51;;;;;;;;;;;21.70;99.90;;;;;;4998598;28;20296;-77
2022/10/26 12:03:20;;;;;;;;;;;21.70;99.90;;;;;;4998059;28;19926;-77
2022/10/26 12:05:49;;;;;;;;;;;21.70;99.90;;;;;;4998165;28;19926;-77
2022/10/26 12:08:18;;;;;;;;;;;21.70;99.90;;;;;;4997690;28;19926;-77
2022/10/26 12:10:48;;;;;;;;;;;21.70;99.90;;;;;;4997989;28;19930;-77
2022/10/26 12:13:19;;;;;;;;;;;21.80;99.90;;;;;;4997883;28;19930;-77
2022/10/26 12:15:48;;;;;;;;;;;21.70;99.90;;;;;;4998369;28;19925;-78
2022/10/26 12:18:17;;;;;;;;;;;21.80;99.90;;;;;;5000378;28;19929;-78
2022/10/26 12:20:52;;;;;;;;;;;21.70;99.90;;;;;;4998917;28;19926;-78
2022/10/26 12:23:18;;;;;;;;;;;21.70;99.90;;;;;;4999002;28;19949;-78
2022/10/26 12:25:45;;;;;;;;;;;21.70;99.90;;;;;;4997800;28;19933;-78
2022/10/26 12:28:26;;;;;;;;;;;21.80;99.90;;;;;;4997609;28;19930;-78
2022/10/26 12:31:14;;;;;;;;;;;21.80;99.90;;;;;;4997921;28;19926;-78
2022/10/26 12:33:49;;;;;;;;;;;21.80;99.90;;;;;;4998541;28;20269;-78
2022/10/26 12:36:30;;;;;;;;;;;21.80;99.90;;;;;;4997483;28;19933;-78
2022/10/26 12:38:59;;;;;;;;;;;21.80;99.90;;;;;;4997161;28;19926;-77
2022/10/26 12:41:25;;;;;;;;;;;21.80;99.90;;;;;;4998376;28;19932;-82
2022/10/26 12:44:02;;;;;;;;;;;21.80;99.90;;;;;;4997489;28;19926;-77
2022/10/26 12:46:39;;;;;;;;;;;21.90;99.90;;;;;;4997254;28;19933;-77
2022/10/26 12:49:39;;;;;;;;;;;21.90;99.90;;;;;;4997115;28;19926;-77
2022/10/26 12:52:17;;;;;;;;;;;21.90;99.90;;;;;;4996670;28;20389;-77
2022/10/26 12:54:49;;;;;;;;;;;21.90;99.90;;;;;;4997068;28;19930;-77
2022/10/26 12:57:22;;;;;;;;;;;21.90;99.90;;;;;;4999442;28;19926;-77
2022/10/26 12:59:53;;;;;;;;;;;21.90;99.90;;;;;;4999663;28;20025;-77
2022/10/26 13:02:31;;;;;;;;;;;21.90;99.90;;;;;;4997521;28;19933;-76
2022/10/26 13:05:07;;;;;;;;;;;21.90;99.90;;;;;;4997499;28;19925;-76
2022/10/26 13:07:35;;;;;;;;;;;21.90;99.90;;;;;;4997179;28;19933;-75
2022/10/26 13:10:03;;;;;;;;;;;21.90;99.90;;;;;;4996610;28;20408;-77
2022/10/26 15:21:22;;;;;;;;;;;21.60;99.90;;;;;;5259621;23;19926;-77
2022/10/26 15:23:48;;;;;;;;;;;21.60;99.90;;;;;;4994352;28;19926;-77
2022/10/26 15:26:15;;;;;;;;;;;21.60;99.90;;;;;;4994529;28;19925;-77
2022/10/26 15:28:42;;;;;;;;;;;21.60;99.90;;;;;;4994557;28;19930;-77
2022/10/26 15:31:27;;;;;;;;;;;21.60;99.90;;;;;;4994409;28;19925;-77
2022/10/26 15:34:09;;;;;;;;;;;21.60;99.90;;;;;;4994503;28;19926;-77
2022/10/26 15:36:37;;;;;;;;;;;21.60;99.90;;;;;;4994538;28;19933;-80
2022/10/26 15:39:03;;;;;;;;;;;21.60;99.90;;;;;;4996418;28;19926;-80
2022/10/26 15:41:31;;;;;;;;;;;21.60;99.90;;;;;;4997451;28;19926;-80
2022/10/26 15:44:00;;;;;;;;;;;21.60;99.90;;;;;;4996443;28;19926;-80
2022/10/26 15:46:29;;;;;;;;;;;21.60;99.90;;;;;;4996748;28;19926;-80
2022/10/26 15:48:57;;;;;;;;;;;21.60;99.90;;;;;;4996810;28;19933;-80
2022/10/26 15:51:24;;;;;;;;;;;21.60;99.90;;;;;;4996427;28;19934;-80
2022/10/26 15:53:51;;;;;;;;;;;21.60;99.90;;;;;;4996731;28;19933;-80
2022/10/26 15:56:19;;;;;;;;;;;21.60;99.90;;;;;;4996159;28;19934;-81
2022/10/26 15:58:46;;;;;;;;;;;21.60;99.90;;;;;;4996157;28;19933;-81
2022/10/26 16:01:14;;;;;;;;;;;21.60;99.90;;;;;;4997142;28;19933;-80
2022/10/26 16:03:40;;;;;;;;;;;21.60;99.90;;;;;;4996688;28;19926;-80
2022/10/26 16:06:09;;;;;;;;;;;21.60;99.90;;;;;;4996801;28;19926;-79
2022/10/26 16:08:36;;;;;;;;;;;21.60;99.90;;;;;;5000076;28;19933;-79
2022/10/26 16:11:03;;;;;;;;;;;21.60;99.90;;;;;;5001317;28;19937;-79
2022/10/26 16:13:30;;;;;;;;;;;21.60;99.90;;;;;;5001444;28;19932;-79
2022/10/26 16:15:57;;;;;;;;;;;21.60;99.90;;;;;;5001242;28;19926;-80
2022/10/26 16:18:23;;;;;;;;;;;21.60;99.90;;;;;;5001567;28;19925;-80
2022/10/26 16:20:50;;;;;;;;;;;21.60;99.90;;;;;;5001433;28;19926;-79
2022/10/26 16:23:16;;;;;;;;;;;21.60;99.90;;;;;;5001150;28;19962;-79
2022/10/26 16:25:44;;;;;;;;;;;21.60;99.90;;;;;;5000176;28;19949;-80
2022/10/26 16:28:12;;;;;;;;;;;21.60;99.90;;;;;;4999761;28;19933;-80
2022/10/26 16:30:39;;;;;;;;;;;21.70;99.90;;;;;;5000023;28;19926;-79
2022/10/26 16:33:06;;;;;;;;;;;21.60;99.90;;;;;;4999677;28;19926;-80
2022/10/26 16:35:32;;;;;;;;;;;21.60;99.90;;;;;;4999242;28;19936;-79
2022/10/26 16:37:59;;;;;;;;;;;21.60;99.90;;;;;;4997943;28;20289;-80
2022/10/26 16:40:26;;;;;;;;;;;21.60;99.90;;;;;;4999939;28;19925;-79
2022/10/26 16:42:52;;;;;;;;;;;21.60;99.90;;;;;;5000112;28;19961;-79
2022/10/26 16:45:20;;;;;;;;;;;21.60;99.90;;;;;;5000753;28;19925;-79
2022/10/26 16:47:47;;;;;;;;;;;21.60;99.90;;;;;;5002969;28;19933;-79
2022/10/26 16:50:13;;;;;;;;;;;21.70;99.90;;;;;;5003107;28;19933;-80
2022/10/26 16:52:40;;;;;;;;;;;21.70;99.90;;;;;;5002244;28;19926;-80
2022/10/26 16:55:07;;;;;;;;;;;21.70;99.90;;;;;;5002407;28;19925;-79
2022/10/26 16:57:35;;;;;;;;;;;21.70;99.90;;;;;;5001899;28;19926;-79
2022/10/26 17:00:01;;;;;;;;;;;21.70;99.90;;;;;;5002148;28;19925;-79
2022/10/26 17:02:29;;;;;;;;;;;21.70;99.90;;;;;;5002191;28;19933;-81
2022/10/26 17:04:56;;;;;;;;;;;21.70;99.90;;;;;;5002162;28;19930;-80
2022/10/26 17:07:22;;;;;;;;;;;21.70;99.90;;;;;;5001642;28;19929;-80
2022/10/26 17:09:49;;;;;;;;;;;21.70;99.90;;;;;;5001016;28;19926;-78
2022/10/26 17:12:15;;;;;;;;;;;21.70;99.90;;;;;;4999298;28;19930;-79
2022/10/26 17:14:42;;;;;;;;;;;21.70;99.90;;;;;;4999145;28;19937;-79
2022/10/26 17:17:08;;;;;;;;;;;21.70;99.90;;;;;;4999470;28;19933;-79
2022/10/26 17:19:36;;;;;;;;;;;21.70;99.90;;;;;;4997968;28;20288;-79
2022/10/26 17:22:03;;;;;;;;;;;21.70;99.90;;;;;;4998905;28;19926;-79
2022/10/26 17:24:29;;;;;;;;;;;21.70;99.90;;;;;;4998650;28;19925;-79
2022/10/26 17:26:56;;;;;;;;;;;21.70;99.90;;;;;;4999053;28;20349;-80
2022/10/26 17:29:22;;;;;;;;;;;21.70;99.90;;;;;;4998929;28;20329;-80
2022/10/26 17:31:49;;;;;;;;;;;21.80;99.90;;;;;;4998876;28;20270;-78
2022/10/26 17:34:16;;;;;;;;;;;21.80;99.90;;;;;;4996624;28;20328;-79
2022/10/26 17:36:43;;;;;;;;;;;21.80;99.90;;;;;;4997445;28;19936;-78
2022/10/26 17:39:10;;;;;;;;;;;21.80;99.90;;;;;;4997682;28;19932;-78
2022/10/26 17:41:37;;;;;;;;;;;21.80;99.90;;;;;;4999067;28;19926;-79
2022/10/26 17:44:05;;;;;;;;;;;21.80;99.90;;;;;;4996494;28;20163;-76
2022/10/26 17:46:32;;;;;;;;;;;21.80;99.90;;;;;;4996202;28;19925;-76
2022/10/26 17:49:00;;;;;;;;;;;21.80;99.90;;;;;;4996165;28;19926;-77
2022/10/26 17:51:27;;;;;;;;;;;21.80;99.90;;;;;;4995940;28;20306;-77
2022/10/26 17:53:55;;;;;;;;;;;21.80;99.90;;;;;;4996109;28;19932;-77
2022/10/26 17:56:23;;;;;;;;;;;21.90;99.90;;;;;;4996241;28;19930;-77
2022/10/26 17:58:53;;;;;;;;;;;21.80;99.90;;;;;;4995655;28;20025;-77
2022/10/26 18:01:20;;;;;;;;;;;21.80;99.90;;;;;;4996319;28;19933;-77
2022/10/26 18:03:47;;;;;;;;;;;21.80;99.90;;;;;;4996396;28;19926;-76
2022/10/26 18:06:15;;;;;;;;;;;21.80;99.90;;;;;;4995908;28;19961;-77
2022/10/26 18:08:42;;;;;;;;;;;21.80;99.90;;;;;;4997541;28;19930;-77
2022/10/26 18:11:12;;;;;;;;;;;21.80;99.90;;;;;;4996636;28;19926;-77
2022/10/26 18:13:39;;;;;;;;;;;21.80;99.90;;;;;;4996461;28;19930;-78
2022/10/26 18:16:07;;;;;;;;;;;21.90;99.90;;;;;;4996607;28;19933;-78
2022/10/26 18:18:34;;;;;;;;;;;21.80;99.90;;;;;;4996952;28;20292;-79
2022/10/26 18:21:01;;;;;;;;;;;21.80;99.90;;;;;;4997228;28;19926;-79
2022/10/26 18:23:27;;;;;;;;;;;21.80;99.90;;;;;;4996584;28;19934;-79
2022/10/26 18:25:59;;;;;;;;;;;21.80;99.90;;;;;;4996941;28;19932;-79
2022/10/26 18:28:27;;;;;;;;;;;21.80;99.90;;;;;;4996360;28;19926;-79
2022/10/26 18:30:54;;;;;;;;;;;21.80;99.90;;;;;;4995932;28;19926;-79
2022/10/26 18:33:20;;;;;;;;;;;21.80;99.90;;;;;;4995739;28;19926;-76
2022/10/26 18:35:47;;;;;;;;;;;21.80;99.90;;;;;;4995224;28;20323;-74
2022/10/26 18:38:13;;;;;;;;;;;21.80;99.90;;;;;;4995404;28;20328;-76
2022/10/26 18:40:40;;;;;;;;;;;21.80;99.90;;;;;;4997664;28;20397;-76
2022/10/26 18:43:06;;;;;;;;;;;21.80;99.90;;;;;;4996035;28;20393;-76
2022/10/26 18:45:34;;;;;;;;;;;21.80;99.90;;;;;;4996790;28;19933;-76
2022/10/26 18:48:01;;;;;;;;;;;21.80;99.90;;;;;;4996034;28;20385;-76
2022/10/26 18:50:27;;;;;;;;;;;21.80;99.90;;;;;;4995187;28;19926;-75
2022/10/26 18:52:54;;;;;;;;;;;21.80;99.90;;;;;;4994670;28;20389;-75
2022/10/26 18:55:20;;;;;;;;;;;21.90;99.90;;;;;;4994632;28;20390;-75
2022/10/26 18:57:47;;;;;;;;;;;21.80;99.90;;;;;;4994527;28;20404;-75
2022/10/26 19:00:14;;;;;;;;;;;21.80;99.90;;;;;;4994418;28;20301;-76
2022/10/26 19:02:42;;;;;;;;;;;21.90;99.90;;;;;;4995662;28;19925;-76
2022/10/26 19:05:09;;;;;;;;;;;21.80;99.90;;;;;;4994819;28;19933;-76
2022/10/26 19:07:38;;;;;;;;;;;21.90;99.90;;;;;;4994720;28;19930;-77
2022/10/26 19:10:04;;;;;;;;;;;21.80;99.90;;;;;;4995120;28;20012;-78
2022/10/26 19:12:31;;;;;;;;;;;21.90;99.90;;;;;;4996687;28;19926;-79
2022/10/26 19:14:57;;;;;;;;;;;21.90;99.90;;;;;;4996861;28;20381;-79
2022/10/26 19:17:24;;;;;;;;;;;21.90;99.90;;;;;;4995999;28;20305;-79
2022/10/26 19:19:52;;;;;;;;;;;21.90;99.90;;;;;;4996880;28;19926;-79
2022/10/26 19:22:18;;;;;;;;;;;21.90;99.90;;;;;;4997030;28;19937;-79
2022/10/26 19:24:47;;;;;;;;;;;21.90;99.90;;;;;;4996720;28;19925;-79
2022/10/26 19:27:13;;;;;;;;;;;21.90;99.90;;;;;;4996349;28;19926;-79
2022/10/26 19:29:40;;;;;;;;;;;21.90;99.90;;;;;;4996095;28;20068;-79
2022/10/26 19:32:06;;;;;;;;;;;21.80;99.90;;;;;;4996511;28;20417;-79
2022/10/26 19:34:33;;;;;;;;;;;21.80;99.90;;;;;;4995644;28;20025;-79
2022/10/26 19:37:02;;;;;;;;;;;21.80;99.90;;;;;;4996837;28;19926;-79
2022/10/26 19:39:29;;;;;;;;;;;21.80;99.90;;;;;;4997157;28;19932;-80
2022/10/26 19:41:55;;;;;;;;;;;21.80;99.90;;;;;;4998390;28;20385;-79
2022/10/26 19:44:22;;;;;;;;;;;21.80;99.90;;;;;;5000224;28;19933;-77
2022/10/26 19:46:49;;;;;;;;;;;21.80;99.90;;;;;;5000249;28;19973;-82
2022/10/26 19:49:17;;;;;;;;;;;21.80;99.90;;;;;;5003412;28;19933;-81
2022/10/26 19:51:43;;;;;;;;;;;21.80;99.90;;;;;;5002230;28;20293;-82
2022/10/26 19:54:11;;;;;;;;;;;21.80;99.90;;;;;;5003376;28;19948;-79
2022/10/26 19:56:38;;;;;;;;;;;21.80;99.90;;;;;;5000133;28;19926;-79
2022/10/26 19:59:05;;;;;;;;;;;21.80;99.90;;;;;;5000834;28;19926;-80
2022/10/26 20:01:32;;;;;;;;;;;21.80;99.90;;;;;;5001948;28;19932;-79
2022/10/26 20:04:01;;;;;;;;;;;21.70;99.90;;;;;;4999274;28;19933;-79
2022/10/26 20:06:28;;;;;;;;;;;21.80;99.90;;;;;;4999327;28;20378;-78
2022/10/26 20:08:54;;;;;;;;;;;21.70;99.90;;;;;;4997911;28;19933;-78
2022/10/26 20:11:22;;;;;;;;;;;21.70;99.90;;;;;;4998642;28;19932;-78
2022/10/26 20:13:48;;;;;;;;;;;21.80;99.90;;;;;;4997612;28;20329;-78
2022/10/26 20:16:16;;;;;;;;;;;21.80;99.90;;;;;;4998282;28;20312;-78
2022/10/26 20:18:43;;;;;;;;;;;21.80;99.90;;;;;;4998564;28;19926;-78
2022/10/26 20:21:10;;;;;;;;;;;21.70;99.90;;;;;;4998910;28;19926;-78
2022/10/26 20:23:37;;;;;;;;;;;21.80;99.90;;;;;;5000246;28;19926;-78
2022/10/26 20:26:03;;;;;;;;;;;21.70;99.90;;;;;;5001146;28;20421;-79
2022/10/26 20:28:31;;;;;;;;;;;21.70;99.90;;;;;;5001462;28;19925;-79
2022/10/26 20:30:59;;;;;;;;;;;21.70;99.90;;;;;;5001111;28;19932;-78
2022/10/26 20:33:25;;;;;;;;;;;21.80;99.90;;;;;;5000203;28;19926;-78
2022/10/26 20:35:55;;;;;;;;;;;21.70;99.90;;;;;;4999265;28;20370;-78
2022/10/26 20:38:22;;;;;;;;;;;21.70;99.90;;;;;;4998431;28;19933;-77
2022/10/26 20:40:51;;;;;;;;;;;21.80;99.90;;;;;;4997981;28;19925;-78
2022/10/26 20:43:18;;;;;;;;;;;21.70;99.90;;;;;;4998920;28;19949;-78
2022/10/26 20:45:46;;;;;;;;;;;21.70;99.90;;;;;;4999228;28;19965;-78
2022/10/26 20:48:13;;;;;;;;;;;21.70;99.90;;;;;;4999225;28;20386;-78
2022/10/26 20:50:40;;;;;;;;;;;21.70;99.90;;;;;;4998664;28;19933;-78
2022/10/26 20:53:10;;;;;;;;;;;21.70;99.90;;;;;;4997977;28;20409;-78
2022/10/26 20:55:39;;;;;;;;;;;21.80;99.90;;;;;;4998946;28;19926;-78
2022/10/26 20:58:09;;;;;;;;;;;21.70;99.90;;;;;;4997355;28;20293;-78
2022/10/26 21:00:38;;;;;;;;;;;21.70;99.90;;;;;;4997259;28;19930;-78
2022/10/26 21:03:08;;;;;;;;;;;21.70;99.90;;;;;;4997536;28;19925;-78
2022/10/26 21:05:34;;;;;;;;;;;21.70;99.90;;;;;;4997891;28;19937;-78
2022/10/26 21:08:01;;;;;;;;;;;21.70;99.90;;;;;;4997497;28;20411;-78
2022/10/26 21:10:28;;;;;;;;;;;21.70;99.90;;;;;;4996901;28;19933;-78
2022/10/26 21:12:55;;;;;;;;;;;21.70;99.90;;;;;;4997374;28;19925;-78
2022/10/26 21:15:21;;;;;;;;;;;21.70;99.90;;;;;;4997068;28;19926;-78
2022/10/26 21:17:48;;;;;;;;;;;21.70;99.90;;;;;;4997361;28;19932;-78
2022/10/26 21:20:16;;;;;;;;;;;21.70;99.90;;;;;;4997679;28;19930;-78
2022/10/26 21:22:43;;;;;;;;;;;21.70;99.90;;;;;;4997244;28;19926;-78
2022/10/26 21:25:09;;;;;;;;;;;21.70;99.90;;;;;;4997111;28;19926;-78
2022/10/26 21:27:36;;;;;;;;;;;21.70;99.90;;;;;;4996834;28;19949;-78
2022/10/26 21:30:03;;;;;;;;;;;21.70;99.90;;;;;;4996937;28;19933;-78
2022/10/26 21:32:29;;;;;;;;;;;21.70;99.90;;;;;;4996555;28;20289;-78
2022/10/26 21:37:26;;;;;;;;;;;21.70;99.90;;;;;;5020265;23;20021;-76
2022/10/26 21:39:52;;;;;;;;;;;21.80;99.90;;;;;;4995984;28;19984;-77
2022/10/26 21:42:19;;;;;;;;;;;21.80;99.90;;;;;;4995976;28;20385;-77
2022/10/26 21:44:45;;;;;;;;;;;21.70;99.90;;;;;;4996245;28;19926;-76
2022/10/26 21:47:12;;;;;;;;;;;21.70;99.90;;;;;;4996170;28;19937;-76
2022/10/26 21:49:39;;;;;;;;;;;21.70;99.90;;;;;;4996136;28;19932;-76
2022/10/26 21:52:06;;;;;;;;;;;21.70;99.90;;;;;;4996208;28;19926;-76
2022/10/26 21:54:34;;;;;;;;;;;21.70;99.90;;;;;;4996006;28;19930;-76
2022/10/26 21:57:00;;;;;;;;;;;21.70;99.90;;;;;;4995889;28;19980;-76
2022/10/26 21:59:27;;;;;;;;;;;21.70;99.90;;;;;;4995856;28;19933;-76
2022/10/26 22:01:53;;;;;;;;;;;21.70;99.90;;;;;;4995887;28;19926;-77
2022/10/26 22:04:20;;;;;;;;;;;21.70;99.90;;;;;;4995257;28;19925;-77
2022/10/26 22:06:46;;;;;;;;;;;21.70;99.90;;;;;;4995690;28;19933;-77
2022/10/26 22:09:13;;;;;;;;;;;21.70;99.90;;;;;;4995553;28;20424;-75
